Time;durP1;ratioP1;P1;durP2;ratioP2;P2;SDS_P1;SDS_P2;PMS_P1;PMS_P2;Temp;Humidity;BMP_temperature;BMP_pressure;BME280_temperature;BME280_humidity;BME280_pressure;Samples;Min_cycle;Max_cycle;Signal;HPM_P1;HPM_P2
2021/08/04 00:01:45;;;;;;;0.10;0.10;;;;;;;;;;5074042;28;20118;-75
2021/08/04 00:04:11;;;;;;;0.10;0.10;;;;;;;;;;5074143;28;20036;-75
2021/08/04 00:06:38;;;;;;;0.22;0.22;;;;;;;;;;5074583;28;20055;-75
2021/08/04 00:09:04;;;;;;;0.45;0.45;;;;;;;;;;5074489;28;20112;-75
2021/08/04 00:11:31;;;;;;;0.10;0.10;;;;;;;;;;5074087;28;20048;-75
2021/08/04 00:13:57;;;;;;;1.02;0.40;;;;;;;;;;5074473;28;20037;-75
2021/08/04 00:16:23;;;;;;;0.10;0.10;;;;;;;;;;5074152;28;20052;-75
2021/08/04 00:18:49;;;;;;;0.15;0.15;;;;;;;;;;5074176;28;20051;-75
2021/08/04 00:21:15;;;;;;;0.20;0.20;;;;;;;;;;5073763;28;20124;-75
2021/08/04 00:23:41;;;;;;;1.08;0.15;;;;;;;;;;5074450;28;20131;-75
2021/08/04 00:26:07;;;;;;;0.15;0.15;;;;;;;;;;5074279;28;20515;-75
2021/08/04 00:28:34;;;;;;;0.17;0.17;;;;;;;;;;5074072;28;20041;-75
2021/08/04 00:31:00;;;;;;;0.10;0.10;;;;;;;;;;5074660;28;20079;-75
2021/08/04 00:33:26;;;;;;;0.38;0.32;;;;;;;;;;5074224;28;20040;-75
2021/08/04 00:35:52;;;;;;;0.20;0.20;;;;;;;;;;5073662;28;20037;-75
2021/08/04 00:38:20;;;;;;;0.30;0.30;;;;;;;;;;5074169;28;20048;-75
2021/08/04 00:40:46;;;;;;;0.10;0.10;;;;;;;;;;5074472;28;20503;-75
2021/08/04 00:43:12;;;;;;;0.20;0.20;;;;;;;;;;5077349;28;20112;-75
2021/08/04 00:45:39;;;;;;;0.10;0.10;;;;;;;;;;5077314;28;20546;-75
2021/08/04 00:48:05;;;;;;;0.10;0.10;;;;;;;;;;5077510;28;20059;-74
2021/08/04 00:50:31;;;;;;;0.22;0.22;;;;;;;;;;5077042;28;20041;-75
2021/08/04 00:52:58;;;;;;;0.10;0.10;;;;;;;;;;5077960;28;20047;-75
2021/08/04 00:55:25;;;;;;;0.32;0.32;;;;;;;;;;5077366;28;20130;-75
2021/08/04 00:57:51;;;;;;;0.10;0.10;;;;;;;;;;5077378;28;20048;-76
2021/08/04 01:00:17;;;;;;;0.20;0.20;;;;;;;;;;5077136;28;20036;-75
2021/08/04 01:02:43;;;;;;;0.10;0.10;;;;;;;;;;5077310;28;20068;-76
2021/08/04 01:05:13;;;;;;;0.20;0.20;;;;;;;;;;5076817;28;20040;-75
2021/08/04 01:07:42;;;;;;;0.30;0.30;;;;;;;;;;5077996;28;20032;-75
2021/08/04 01:10:10;;;;;;;0.10;0.10;;;;;;;;;;5077264;28;20036;-75
2021/08/04 01:12:41;;;;;;;0.20;0.20;;;;;;;;;;5076925;28;20110;-75
2021/08/04 01:15:08;;;;;;;0.10;0.10;;;;;;;;;;5076432;28;20047;-76
2021/08/04 01:17:35;;;;;;;0.10;0.10;;;;;;;;;;5077586;28;20051;-75
2021/08/04 01:20:11;;;;;;;0.10;0.10;;;;;;;;;;5076900;28;20051;-75
2021/08/04 01:22:38;;;;;;;0.20;0.20;;;;;;;;;;5077316;28;20048;-75
2021/08/04 01:25:15;;;;;;;0.30;0.30;;;;;;;;;;5076490;28;20518;-75
2021/08/04 01:27:44;;;;;;;0.10;0.10;;;;;;;;;;5076812;28;20146;-75
2021/08/04 01:30:11;;;;;;;0.20;0.20;;;;;;;;;;5076587;28;20591;-76
2021/08/04 01:32:37;;;;;;;0.20;0.20;;;;;;;;;;5076772;28;20040;-75
2021/08/04 01:35:04;;;;;;;0.10;0.10;;;;;;;;;;5076154;28;20047;-75
2021/08/04 01:37:31;;;;;;;0.15;0.15;;;;;;;;;;5077237;28;20051;-75
2021/08/04 01:39:58;;;;;;;0.30;0.30;;;;;;;;;;5076418;28;20094;-75
2021/08/04 01:42:24;;;;;;;0.20;0.20;;;;;;;;;;5076310;28;20033;-75
2021/08/04 01:44:51;;;;;;;0.10;0.10;;;;;;;;;;5076195;28;20034;-76
2021/08/04 01:47:18;;;;;;;0.10;0.10;;;;;;;;;;5076505;28;20032;-75
2021/08/04 01:49:45;;;;;;;0.38;0.38;;;;;;;;;;5076423;28;20491;-75
2021/08/04 01:52:12;;;;;;;0.20;0.20;;;;;;;;;;5075460;28;20492;-75
2021/08/04 01:54:38;;;;;;;0.20;0.20;;;;;;;;;;5076316;28;20032;-75
2021/08/04 01:57:06;;;;;;;0.17;0.17;;;;;;;;;;5076050;28;20044;-74
2021/08/04 01:59:33;;;;;;;0.20;0.20;;;;;;;;;;5075653;28;20068;-75
2021/08/04 02:02:17;;;;;;;0.20;0.20;;;;;;;;;;5077017;28;20071;-75
2021/08/04 02:04:43;;;;;;;0.10;0.10;;;;;;;;;;5075694;28;20487;-75
2021/08/04 02:07:12;;;;;;;0.30;0.30;;;;;;;;;;5076070;28;20043;-74
2021/08/04 02:09:38;;;;;;;0.50;0.50;;;;;;;;;;5076226;28;20071;-75
2021/08/04 02:12:11;;;;;;;0.15;0.15;;;;;;;;;;5075729;28;20044;-75
2021/08/04 02:14:46;;;;;;;0.30;0.30;;;;;;;;;;5075783;28;20040;-75
2021/08/04 02:17:21;;;;;;;0.10;0.10;;;;;;;;;;5076250;28;20052;-75
2021/08/04 02:19:50;;;;;;;2.22;0.57;;;;;;;;;;5075791;28;20044;-75
2021/08/04 02:22:24;;;;;;;10.30;0.40;;;;;;;;;;5075716;28;20040;-75
2021/08/04 02:24:52;;;;;;;0.20;0.20;;;;;;;;;;5075554;28;20072;-75
2021/08/04 02:27:19;;;;;;;0.10;0.10;;;;;;;;;;5075487;28;20094;-75
2021/08/04 02:29:47;;;;;;;0.30;0.30;;;;;;;;;;5075695;28;20049;-75
2021/08/04 02:32:13;;;;;;;0.20;0.20;;;;;;;;;;5075584;28;20070;-75
2021/08/04 02:34:40;;;;;;;0.10;0.10;;;;;;;;;;5075330;28;20040;-75
2021/08/04 02:37:06;;;;;;;0.20;0.20;;;;;;;;;;5075523;28;20154;-75
2021/08/04 02:39:32;;;;;;;0.20;0.20;;;;;;;;;;5075640;28;20115;-75
2021/08/04 02:41:58;;;;;;;0.10;0.10;;;;;;;;;;5075523;28;20051;-75
2021/08/04 02:44:24;;;;;;;0.20;0.20;;;;;;;;;;5075237;28;20476;-75
2021/08/04 02:46:51;;;;;;;0.85;0.40;;;;;;;;;;5075031;28;20211;-76
2021/08/04 02:49:18;;;;;;;0.30;0.30;;;;;;;;;;5075109;28;20068;-75
2021/08/04 02:51:45;;;;;;;0.35;0.35;;;;;;;;;;5075710;28;20047;-76
2021/08/04 02:54:14;;;;;;;0.28;0.28;;;;;;;;;;5075172;28;20073;-75
2021/08/04 02:56:40;;;;;;;0.10;0.10;;;;;;;;;;5074985;28;20068;-75
2021/08/04 02:59:07;;;;;;;0.35;0.35;;;;;;;;;;5075168;28;20179;-75
2021/08/04 03:01:33;;;;;;;0.40;0.40;;;;;;;;;;5075642;28;20048;-75
2021/08/04 03:03:59;;;;;;;0.43;0.43;;;;;;;;;;5074889;28;20048;-75
2021/08/04 03:06:25;;;;;;;0.15;0.15;;;;;;;;;;5074519;28;20060;-75
2021/08/04 03:08:51;;;;;;;0.20;0.20;;;;;;;;;;5075232;28;20048;-75
2021/08/04 03:11:17;;;;;;;0.10;0.10;;;;;;;;;;5074962;28;20040;-75
2021/08/04 03:13:43;;;;;;;0.10;0.10;;;;;;;;;;5074560;28;20560;-75
2021/08/04 03:16:09;;;;;;;0.20;0.20;;;;;;;;;;5074755;28;20052;-75
2021/08/04 03:18:35;;;;;;;0.15;0.15;;;;;;;;;;5074689;28;20119;-75
2021/08/04 03:21:01;;;;;;;0.25;0.25;;;;;;;;;;5074410;28;20053;-74
2021/08/04 03:23:27;;;;;;;0.20;0.20;;;;;;;;;;5074724;28;20037;-75
2021/08/04 03:25:54;;;;;;;0.20;0.20;;;;;;;;;;5074983;28;20071;-75
2021/08/04 03:28:20;;;;;;;0.20;0.20;;;;;;;;;;5074286;28;20028;-76
2021/08/04 03:30:46;;;;;;;0.20;0.20;;;;;;;;;;5074438;28;20044;-75
2021/08/04 03:33:12;;;;;;;0.10;0.10;;;;;;;;;;5074498;28;20029;-76
2021/08/04 03:35:38;;;;;;;0.85;0.20;;;;;;;;;;5074073;28;20045;-75
2021/08/04 03:38:04;;;;;;;0.20;0.20;;;;;;;;;;5074548;28;20193;-75
2021/08/04 03:40:31;;;;;;;0.20;0.20;;;;;;;;;;5075143;28;20483;-75
2021/08/04 03:42:57;;;;;;;0.10;0.10;;;;;;;;;;5074405;28;20495;-75
2021/08/04 03:45:24;;;;;;;0.22;0.22;;;;;;;;;;5074491;28;20056;-75
2021/08/04 03:47:50;;;;;;;0.10;0.10;;;;;;;;;;5074102;28;20585;-75
2021/08/04 03:50:16;;;;;;;0.20;0.20;;;;;;;;;;5074522;28;20086;-75
2021/08/04 03:52:43;;;;;;;0.20;0.20;;;;;;;;;;5074472;28;20036;-75
2021/08/04 03:55:10;;;;;;;0.38;0.38;;;;;;;;;;5074117;28;20479;-75
2021/08/04 03:57:36;;;;;;;0.10;0.10;;;;;;;;;;5074668;28;20044;-75
2021/08/04 04:00:02;;;;;;;0.25;0.25;;;;;;;;;;5074425;28;20123;-75
2021/08/04 04:02:28;;;;;;;1.35;0.40;;;;;;;;;;5074335;28;20075;-75
2021/08/04 04:04:55;;;;;;;0.20;0.20;;;;;;;;;;5073851;28;20491;-75
2021/08/04 04:07:21;;;;;;;0.10;0.10;;;;;;;;;;5074015;28;20040;-75
2021/08/04 04:09:47;;;;;;;0.22;0.22;;;;;;;;;;5073974;28;20037;-75
2021/08/04 04:12:13;;;;;;;0.10;0.10;;;;;;;;;;5073943;28;20048;-75
2021/08/04 04:14:39;;;;;;;0.28;0.28;;;;;;;;;;5074177;28;20037;-75
2021/08/04 04:17:05;;;;;;;0.32;0.32;;;;;;;;;;5077475;28;20075;-74
2021/08/04 04:19:31;;;;;;;0.17;0.17;;;;;;;;;;5078212;28;20093;-75
2021/08/04 04:21:57;;;;;;;1.52;0.30;;;;;;;;;;5078687;28;20487;-76
2021/08/04 04:24:23;;;;;;;0.10;0.10;;;;;;;;;;5078061;28;20086;-76
2021/08/04 04:26:50;;;;;;;0.13;0.13;;;;;;;;;;5078392;28;20049;-75
2021/08/04 04:29:16;;;;;;;0.20;0.20;;;;;;;;;;5077679;28;20441;-75
2021/08/04 04:31:42;;;;;;;0.15;0.15;;;;;;;;;;5077955;28;20036;-75
2021/08/04 04:34:09;;;;;;;0.20;0.20;;;;;;;;;;5077544;28;20040;-75
2021/08/04 04:36:35;;;;;;;0.30;0.30;;;;;;;;;;5077496;28;20122;-75
2021/08/04 04:39:01;;;;;;;0.20;0.20;;;;;;;;;;5077890;28;20044;-75
2021/08/04 04:41:27;;;;;;;0.40;0.40;;;;;;;;;;5077812;28;20052;-75
2021/08/04 04:43:53;;;;;;;0.20;0.20;;;;;;;;;;5077390;28;20483;-75
2021/08/04 04:46:19;;;;;;;0.10;0.10;;;;;;;;;;5077580;28;20089;-75
2021/08/04 04:48:45;;;;;;;0.30;0.30;;;;;;;;;;5077485;28;20036;-75
2021/08/04 04:51:12;;;;;;;0.32;0.32;;;;;;;;;;5077209;28;20045;-75
2021/08/04 04:53:38;;;;;;;0.15;0.15;;;;;;;;;;5077489;28;20033;-76
2021/08/04 04:56:04;;;;;;;0.73;0.50;;;;;;;;;;5077637;28;20040;-75
2021/08/04 04:58:31;;;;;;;0.15;0.15;;;;;;;;;;5077141;28;20051;-75
2021/08/04 05:00:57;;;;;;;0.20;0.20;;;;;;;;;;5077514;28;20044;-76
2021/08/04 05:03:23;;;;;;;0.20;0.20;;;;;;;;;;5077548;28;20036;-75
2021/08/04 05:05:49;;;;;;;0.28;0.28;;;;;;;;;;5077073;28;20055;-75
2021/08/04 05:08:15;;;;;;;0.20;0.20;;;;;;;;;;5076966;28;20055;-75
2021/08/04 05:10:41;;;;;;;0.30;0.30;;;;;;;;;;5077579;28;20503;-75
2021/08/04 05:13:07;;;;;;;0.22;0.22;;;;;;;;;;5076944;28;20056;-75
2021/08/04 05:15:34;;;;;;;0.32;0.32;;;;;;;;;;5076765;28;20079;-75
2021/08/04 05:18:00;;;;;;;0.10;0.10;;;;;;;;;;5077082;28;20045;-76
2021/08/04 05:20:26;;;;;;;0.10;0.10;;;;;;;;;;5076863;28;20036;-76
2021/08/04 05:22:52;;;;;;;0.10;0.10;;;;;;;;;;5076679;28;20051;-76
2021/08/04 05:25:18;;;;;;;0.20;0.20;;;;;;;;;;5077217;28;20067;-75
2021/08/04 05:27:44;;;;;;;0.20;0.20;;;;;;;;;;5075541;28;20067;-76
2021/08/04 05:30:12;;;;;;;0.17;0.17;;;;;;;;;;5077239;28;20067;-76
2021/08/04 05:32:39;;;;;;;0.10;0.10;;;;;;;;;;5076731;28;20048;-76
2021/08/04 05:35:05;;;;;;;0.10;0.10;;;;;;;;;;5076471;28;20044;-76
2021/08/04 05:37:32;;;;;;;0.20;0.20;;;;;;;;;;5076705;28;20052;-76
2021/08/04 05:39:58;;;;;;;0.20;0.20;;;;;;;;;;5076770;28;20111;-75
2021/08/04 05:42:24;;;;;;;0.10;0.10;;;;;;;;;;5076890;28;20044;-76
2021/08/04 05:44:50;;;;;;;0.10;0.10;;;;;;;;;;5076602;28;20043;-75
2021/08/04 05:47:16;;;;;;;0.32;0.32;;;;;;;;;;5076821;28;20044;-76
2021/08/04 05:49:43;;;;;;;0.10;0.10;;;;;;;;;;5076308;28;20036;-76
2021/08/04 05:52:09;;;;;;;0.10;0.10;;;;;;;;;;5076397;28;20062;-76
2021/08/04 05:54:35;;;;;;;0.10;0.10;;;;;;;;;;5076415;28;20040;-76
2021/08/04 05:57:01;;;;;;;0.20;0.20;;;;;;;;;;5076206;28;20085;-76
2021/08/04 05:59:27;;;;;;;0.15;0.15;;;;;;;;;;5076445;28;20119;-76
2021/08/04 06:01:53;;;;;;;0.52;0.52;;;;;;;;;;5075980;28;20044;-76
2021/08/04 06:04:19;;;;;;;0.25;0.25;;;;;;;;;;5076028;28;20040;-76
2021/08/04 06:06:46;;;;;;;0.20;0.20;;;;;;;;;;5075891;28;20054;-76
2021/08/04 06:09:12;;;;;;;0.10;0.10;;;;;;;;;;5076023;28;20533;-76
2021/08/04 06:11:38;;;;;;;0.30;0.30;;;;;;;;;;5075766;28;20040;-76
2021/08/04 06:14:04;;;;;;;0.17;0.17;;;;;;;;;;5076317;28;20044;-76
2021/08/04 06:16:30;;;;;;;0.10;0.10;;;;;;;;;;5075826;28;20044;-76
2021/08/04 06:18:56;;;;;;;0.10;0.10;;;;;;;;;;5076195;28;20048;-76
2021/08/04 06:21:26;;;;;;;0.10;0.10;;;;;;;;;;5075400;28;20043;-76
2021/08/04 06:23:52;;;;;;;0.28;0.28;;;;;;;;;;5075954;28;20051;-76
2021/08/04 06:26:18;;;;;;;0.22;0.22;;;;;;;;;;5075762;28;20047;-76
2021/08/04 06:28:44;;;;;;;0.10;0.10;;;;;;;;;;5075692;28;20411;-76
2021/08/04 06:31:11;;;;;;;0.10;0.10;;;;;;;;;;5075916;28;20033;-76
2021/08/04 06:33:38;;;;;;;0.10;0.10;;;;;;;;;;5076240;28;20121;-76
2021/08/04 06:36:04;;;;;;;0.10;0.10;;;;;;;;;;5075529;28;20052;-76
2021/08/04 06:38:30;;;;;;;0.10;0.10;;;;;;;;;;5075433;28;20049;-76
2021/08/04 06:40:56;;;;;;;0.10;0.10;;;;;;;;;;5076099;28;20048;-76
2021/08/04 06:43:22;;;;;;;0.10;0.10;;;;;;;;;;5075418;28;20040;-76
2021/08/04 06:45:49;;;;;;;0.10;0.10;;;;;;;;;;5075683;28;20044;-76
2021/08/04 06:48:15;;;;;;;0.10;0.10;;;;;;;;;;5075705;28;20048;-76
2021/08/04 06:50:41;;;;;;;0.20;0.20;;;;;;;;;;5075189;28;20419;-77
2021/08/04 06:53:07;;;;;;;0.10;0.10;;;;;;;;;;5092366;28;20044;-77
2021/08/04 06:55:34;;;;;;;0.13;0.13;;;;;;;;;;5093029;28;20039;-76
2021/08/04 06:58:00;;;;;;;0.10;0.10;;;;;;;;;;5094583;28;20048;-76
2021/08/04 07:00:26;;;;;;;0.10;0.10;;;;;;;;;;5094194;28;20044;-76
2021/08/04 07:02:52;;;;;;;0.10;0.10;;;;;;;;;;5095035;28;20119;-76
2021/08/04 07:05:18;;;;;;;0.35;0.35;;;;;;;;;;5095666;28;20126;-77
2021/08/04 07:07:45;;;;;;;0.10;0.10;;;;;;;;;;5097795;28;20047;-77
2021/08/04 07:10:12;;;;;;;0.30;0.30;;;;;;;;;;5116476;28;20054;-78
2021/08/04 07:12:38;;;;;;;0.10;0.10;;;;;;;;;;5115828;28;20128;-77
2021/08/04 07:15:05;;;;;;;0.10;0.10;;;;;;;;;;5115471;28;20092;-77
2021/08/04 07:18:04;;;;;;;0.20;0.20;;;;;;;;;;5114220;28;20510;-76
2021/08/04 07:20:33;;;;;;;0.10;0.10;;;;;;;;;;5106626;28;20135;-77
2021/08/04 07:22:59;;;;;;;0.10;0.10;;;;;;;;;;5115252;28;20043;-76
2021/08/04 07:25:25;;;;;;;0.10;0.10;;;;;;;;;;5114157;28;20040;-76
2021/08/04 07:27:51;;;;;;;0.10;0.10;;;;;;;;;;5091992;28;20131;-75
2021/08/04 07:30:17;;;;;;;0.20;0.20;;;;;;;;;;5072646;28;20495;-77
2021/08/04 07:32:44;;;;;;;0.10;0.10;;;;;;;;;;5073502;28;20470;-78
2021/08/04 07:35:10;;;;;;;0.10;0.10;;;;;;;;;;5073226;28;20419;-77
2021/08/04 07:37:37;;;;;;;0.10;0.10;;;;;;;;;;5072639;28;20044;-77
2021/08/04 07:40:04;;;;;;;0.10;0.10;;;;;;;;;;5073394;28;20045;-77
2021/08/04 07:42:30;;;;;;;0.28;0.28;;;;;;;;;;5073706;28;20044;-76
2021/08/04 07:44:56;;;;;;;0.10;0.10;;;;;;;;;;5073520;28;20044;-76
2021/08/04 07:47:23;;;;;;;0.20;0.20;;;;;;;;;;5073205;28;20036;-77
2021/08/04 07:49:49;;;;;;;0.10;0.10;;;;;;;;;;5073243;28;20055;-77
2021/08/04 07:52:15;;;;;;;0.10;0.10;;;;;;;;;;5071197;28;20045;-78
2021/08/04 07:54:41;;;;;;;0.10;0.10;;;;;;;;;;5071406;28;20403;-78
2021/08/04 07:57:07;;;;;;;0.10;0.10;;;;;;;;;;5070973;28;20040;-78
2021/08/04 07:59:34;;;;;;;0.10;0.10;;;;;;;;;;5071924;28;20060;-78
2021/08/04 08:02:00;;;;;;;0.10;0.10;;;;;;;;;;5069770;28;20052;-77
2021/08/04 08:04:26;;;;;;;0.20;0.20;;;;;;;;;;5068877;28;20075;-78
2021/08/04 08:06:52;;;;;;;0.20;0.20;;;;;;;;;;5070166;28;20115;-78
2021/08/04 08:09:21;;;;;;;0.10;0.10;;;;;;;;;;5071841;28;20131;-77
2021/08/04 08:11:50;;;;;;;0.10;0.10;;;;;;;;;;5072533;28;20050;-77
2021/08/04 08:14:16;;;;;;;0.20;0.20;;;;;;;;;;5072324;28;20048;-77
2021/08/04 08:16:43;;;;;;;0.10;0.10;;;;;;;;;;5072448;28;20094;-77
2021/08/04 08:19:09;;;;;;;0.20;0.20;;;;;;;;;;5071503;28;20090;-77
2021/08/04 08:21:35;;;;;;;0.35;0.35;;;;;;;;;;5071869;28;20146;-77
2021/08/04 08:24:01;;;;;;;0.10;0.10;;;;;;;;;;5072463;28;20047;-78
2021/08/04 08:26:27;;;;;;;0.15;0.15;;;;;;;;;;5071944;28;20056;-78
2021/08/04 08:28:53;;;;;;;0.10;0.10;;;;;;;;;;5077385;28;20046;-78
2021/08/04 08:31:19;;;;;;;0.20;0.20;;;;;;;;;;5081651;28;20059;-78
2021/08/04 08:33:46;;;;;;;0.13;0.13;;;;;;;;;;5082622;28;20043;-77
2021/08/04 08:36:12;;;;;;;0.20;0.20;;;;;;;;;;5084582;28;20054;-76
2021/08/04 08:38:38;;;;;;;0.10;0.10;;;;;;;;;;5074270;28;20033;-78
2021/08/04 08:41:06;;;;;;;0.30;0.30;;;;;;;;;;5077329;28;20036;-75
2021/08/04 08:43:36;;;;;;;0.20;0.20;;;;;;;;;;5089143;28;20037;-75
2021/08/04 08:46:02;;;;;;;0.17;0.17;;;;;;;;;;5087277;28;20048;-78
2021/08/04 08:48:29;;;;;;;0.20;0.20;;;;;;;;;;5081369;28;20067;-77
2021/08/04 08:50:55;;;;;;;0.10;0.10;;;;;;;;;;5080457;28;20048;-78
2021/08/04 08:53:22;;;;;;;0.13;0.13;;;;;;;;;;5079607;28;20040;-78
2021/08/04 08:55:48;;;;;;;0.10;0.10;;;;;;;;;;5072034;28;20067;-77
2021/08/04 08:58:15;;;;;;;0.10;0.10;;;;;;;;;;5072635;28;20068;-78
2021/08/04 09:00:41;;;;;;;0.10;0.10;;;;;;;;;;5072133;28;20278;-78
2021/08/04 09:03:07;;;;;;;0.20;0.20;;;;;;;;;;5092706;28;20043;-77
2021/08/04 09:05:49;;;;;;;0.47;0.25;;;;;;;;;;5093764;28;20044;-78
2021/08/04 09:08:27;;;;;;;0.10;0.10;;;;;;;;;;5084055;28;20048;-78
2021/08/04 09:10:53;;;;;;;0.10;0.10;;;;;;;;;;5076230;28;20040;-77
2021/08/04 09:13:29;;;;;;;0.10;0.10;;;;;;;;;;5076301;28;20052;-78
2021/08/04 09:15:58;;;;;;;0.10;0.10;;;;;;;;;;5076301;28;20039;-77
2021/08/04 09:18:24;;;;;;;0.10;0.10;;;;;;;;;;5093960;28;20051;-77
2021/08/04 09:20:53;;;;;;;0.30;0.30;;;;;;;;;;5095056;28;20554;-77
2021/08/04 09:23:20;;;;;;;0.20;0.20;;;;;;;;;;5089023;28;20486;-78
2021/08/04 09:26:05;;;;;;;0.15;0.15;;;;;;;;;;5084892;28;20047;-78
2021/08/04 09:28:31;;;;;;;0.20;0.20;;;;;;;;;;5096313;28;20040;-77
2021/08/04 09:31:01;;;;;;;0.10;0.10;;;;;;;;;;5096125;28;20040;-77
2021/08/04 09:33:33;;;;;;;0.10;0.10;;;;;;;;;;5095977;28;20028;-77
2021/08/04 09:35:59;;;;;;;0.20;0.20;;;;;;;;;;5095038;28;20540;-77
2021/08/04 09:38:25;;;;;;;0.20;0.20;;;;;;;;;;5096079;28;20040;-77
2021/08/04 09:41:11;;;;;;;0.20;0.20;;;;;;;;;;5095267;28;20044;-77
2021/08/04 09:43:37;;;;;;;0.20;0.20;;;;;;;;;;5095812;28;20036;-77
2021/08/04 09:46:03;;;;;;;0.20;0.20;;;;;;;;;;5095269;28;20452;-76
2021/08/04 09:48:30;;;;;;;0.20;0.20;;;;;;;;;;5095265;28;20123;-77
2021/08/04 09:51:03;;;;;;;0.20;0.20;;;;;;;;;;5095135;28;20044;-77
2021/08/04 09:53:29;;;;;;;0.32;0.32;;;;;;;;;;5094931;28;20544;-76
2021/08/04 09:56:09;;;;;;;0.20;0.20;;;;;;;;;;5095562;28;20048;-77
2021/08/04 09:58:36;;;;;;;0.20;0.20;;;;;;;;;;5094514;28;20169;-76
2021/08/04 10:01:03;;;;;;;0.20;0.20;;;;;;;;;;5094174;28;20043;-76
2021/08/04 10:03:29;;;;;;;0.20;0.20;;;;;;;;;;5095346;28;20123;-75
2021/08/04 10:05:56;;;;;;;0.20;0.20;;;;;;;;;;5093336;28;20121;-77
2021/08/04 10:08:22;;;;;;;0.30;0.30;;;;;;;;;;5094522;28;20048;-76
2021/08/04 10:10:50;;;;;;;0.20;0.20;;;;;;;;;;5094715;28;20040;-77
2021/08/04 10:13:18;;;;;;;0.17;0.17;;;;;;;;;;5095025;28;20063;-77
2021/08/04 10:15:49;;;;;;;0.40;0.40;;;;;;;;;;5095013;28;20071;-78
2021/08/04 10:18:17;;;;;;;0.40;0.40;;;;;;;;;;5095331;28;20123;-77
2021/08/04 10:20:44;;;;;;;0.20;0.20;;;;;;;;;;5095380;28;20090;-77
2021/08/04 10:23:12;;;;;;;0.10;0.10;;;;;;;;;;5088064;28;20040;-77
2021/08/04 10:25:38;;;;;;;0.20;0.20;;;;;;;;;;5072491;28;20044;-77
2021/08/04 10:28:05;;;;;;;0.17;0.17;;;;;;;;;;5076261;28;20076;-77
2021/08/04 10:30:31;;;;;;;0.40;0.40;;;;;;;;;;5075058;28;20040;-77
2021/08/04 10:32:57;;;;;;;0.30;0.30;;;;;;;;;;5076181;28;20044;-77
2021/08/04 10:35:24;;;;;;;0.10;0.10;;;;;;;;;;5075551;28;20045;-76
2021/08/04 10:37:51;;;;;;;0.30;0.30;;;;;;;;;;5075994;28;20044;-76
2021/08/04 10:40:18;;;;;;;0.10;0.10;;;;;;;;;;5076375;28;20075;-76
2021/08/04 10:42:45;;;;;;;0.65;0.47;;;;;;;;;;5075724;28;20040;-76
2021/08/04 10:45:23;;;;;;;0.20;0.20;;;;;;;;;;5075628;28;20083;-77
2021/08/04 10:47:50;;;;;;;0.10;0.10;;;;;;;;;;5075160;28;20036;-77
2021/08/04 10:50:16;;;;;;;0.43;0.43;;;;;;;;;;5075609;28;20056;-77
2021/08/04 10:53:06;;;;;;;0.30;0.20;;;;;;;;;;5075507;28;20043;-76
2021/08/04 10:55:50;;;;;;;0.22;0.22;;;;;;;;;;5067515;28;20056;-77
2021/08/04 10:58:17;;;;;;;0.20;0.20;;;;;;;;;;5075099;28;20047;-76
2021/08/04 11:00:43;;;;;;;0.20;0.20;;;;;;;;;;5075950;28;20048;-76
2021/08/04 11:03:36;;;;;;;0.10;0.10;;;;;;;;;;5075305;28;20064;-76
2021/08/04 11:06:03;;;;;;;0.25;0.17;;;;;;;;;;5068008;28;20052;-77
2021/08/04 11:08:29;;;;;;;0.30;0.30;;;;;;;;;;5072996;28;20040;-76
2021/08/04 11:10:55;;;;;;;0.10;0.10;;;;;;;;;;5074729;28;20526;-77
2021/08/04 11:13:40;;;;;;;0.10;0.10;;;;;;;;;;5078988;28;20064;-77
2021/08/04 11:16:38;;;;;;;0.13;0.13;;;;;;;;;;5068637;28;20044;-78
2021/08/04 11:19:09;;;;;;;0.82;0.32;;;;;;;;;;5058710;28;20052;-77
2021/08/04 11:21:36;;;;;;;0.13;0.13;;;;;;;;;;5080178;28;20083;-77
2021/08/04 11:24:02;;;;;;;0.20;0.20;;;;;;;;;;5081111;28;20048;-77
2021/08/04 11:26:30;;;;;;;0.20;0.20;;;;;;;;;;5089526;28;20048;-78
2021/08/04 11:28:57;;;;;;;0.25;0.25;;;;;;;;;;5093122;28;20059;-78
2021/08/04 11:31:23;;;;;;;0.10;0.10;;;;;;;;;;5093404;28;20040;-77
2021/08/04 11:33:50;;;;;;;0.20;0.20;;;;;;;;;;5075780;28;20040;-78
2021/08/04 11:36:18;;;;;;;1.17;0.20;;;;;;;;;;5082925;28;20087;-76
2021/08/04 11:38:47;;;;;;;0.38;0.30;;;;;;;;;;5074795;28;20051;-77
2021/08/04 11:41:18;;;;;;;0.10;0.10;;;;;;;;;;5093707;28;20511;-76
2021/08/04 11:43:45;;;;;;;0.10;0.10;;;;;;;;;;5092933;28;20040;-75
2021/08/04 11:46:27;;;;;;;0.20;0.20;;;;;;;;;;5091702;28;20044;-76
2021/08/04 11:48:53;;;;;;;0.20;0.20;;;;;;;;;;5092007;28;20423;-76
2021/08/04 11:51:36;;;;;;;0.10;0.10;;;;;;;;;;5092636;28;20040;-76
2021/08/04 11:54:03;;;;;;;0.10;0.10;;;;;;;;;;5093595;28;20048;-76
2021/08/04 11:56:30;;;;;;;0.13;0.13;;;;;;;;;;5080758;28;20040;-76
2021/08/04 11:59:00;;;;;;;0.13;0.13;;;;;;;;;;5077962;28;20127;-77
2021/08/04 12:01:26;;;;;;;0.20;0.20;;;;;;;;;;5092944;28;20032;-76
2021/08/04 12:04:03;;;;;;;0.10;0.10;;;;;;;;;;5092570;28;20040;-76
2021/08/04 12:06:29;;;;;;;0.28;0.28;;;;;;;;;;5092397;28;20035;-77
2021/08/04 12:08:56;;;;;;;0.20;0.20;;;;;;;;;;5092767;28;20040;-77
2021/08/04 12:11:40;;;;;;;0.10;0.10;;;;;;;;;;5092369;28;20044;-76
2021/08/04 12:14:06;;;;;;;0.30;0.30;;;;;;;;;;5092892;28;20067;-76
2021/08/04 12:16:32;;;;;;;0.20;0.20;;;;;;;;;;5085785;28;20075;-77
2021/08/04 12:18:58;;;;;;;0.13;0.13;;;;;;;;;;5092885;28;20075;-77
2021/08/04 12:21:25;;;;;;;0.10;0.10;;;;;;;;;;5091544;28;20094;-78
2021/08/04 12:23:58;;;;;;;0.10;0.10;;;;;;;;;;5092340;28;20496;-77
2021/08/04 12:26:24;;;;;;;0.10;0.10;;;;;;;;;;5089702;28;20078;-77
2021/08/04 12:28:50;;;;;;;0.10;0.10;;;;;;;;;;5093078;28;20036;-77
2021/08/04 12:31:16;;;;;;;0.10;0.10;;;;;;;;;;5092778;28;20185;-77
2021/08/04 12:33:54;;;;;;;0.10;0.10;;;;;;;;;;5092119;28;20169;-77
2021/08/04 12:38:49;;;;;;;0.20;0.20;;;;;;;;;;5096859;28;20084;-77
2021/08/04 12:41:19;;;;;;;0.17;0.17;;;;;;;;;;5096382;28;20082;-78
2021/08/04 12:43:45;;;;;;;0.10;0.10;;;;;;;;;;5096418;28;20174;-76
2021/08/04 12:46:12;;;;;;;0.10;0.10;;;;;;;;;;5095975;28;20059;-77
2021/08/04 12:48:44;;;;;;;0.20;0.20;;;;;;;;;;5096632;28;20040;-77
2021/08/04 12:51:11;;;;;;;0.10;0.10;;;;;;;;;;5095363;28;20040;-77
2021/08/04 12:53:38;;;;;;;0.10;0.10;;;;;;;;;;5096429;28;20085;-76
2021/08/04 12:56:14;;;;;;;0.10;0.10;;;;;;;;;;5095781;28;20090;-77
2021/08/04 12:58:53;;;;;;;0.20;0.20;;;;;;;;;;5096171;28;20058;-77
2021/08/04 13:01:20;;;;;;;0.20;0.20;;;;;;;;;;5096136;28;20039;-77
2021/08/04 13:03:47;;;;;;;0.20;0.20;;;;;;;;;;5096087;28;20036;-77
2021/08/04 13:06:13;;;;;;;0.17;0.17;;;;;;;;;;5095088;28;20587;-78
2021/08/04 13:08:39;;;;;;;0.10;0.10;;;;;;;;;;5079823;28;20044;-76
2021/08/04 13:11:05;;;;;;;0.13;0.13;;;;;;;;;;5075489;28;20048;-77
2021/08/04 13:13:50;;;;;;;0.10;0.10;;;;;;;;;;5075144;28;20063;-77
2021/08/04 13:16:29;;;;;;;0.20;0.20;;;;;;;;;;5076275;28;20052;-77
2021/08/04 13:18:55;;;;;;;0.28;0.28;;;;;;;;;;5078889;28;20036;-77
2021/08/04 13:21:21;;;;;;;0.10;0.10;;;;;;;;;;5095817;28;20055;-76
2021/08/04 13:23:47;;;;;;;0.25;0.25;;;;;;;;;;5096701;28;20047;-77
2021/08/04 13:26:14;;;;;;;0.20;0.20;;;;;;;;;;5096166;28;20075;-76
2021/08/04 13:28:43;;;;;;;0.22;0.22;;;;;;;;;;5096675;28;20036;-77
2021/08/04 13:31:13;;;;;;;0.10;0.10;;;;;;;;;;5096527;28;20064;-77
2021/08/04 13:33:41;;;;;;;0.30;0.30;;;;;;;;;;5095883;28;20093;-77
2021/08/04 13:36:08;;;;;;;0.30;0.30;;;;;;;;;;5095670;28;20055;-77
2021/08/04 13:38:34;;;;;;;0.30;0.30;;;;;;;;;;5096205;28;20088;-76
2021/08/04 13:41:00;;;;;;;0.32;0.32;;;;;;;;;;5095936;28;20101;-77
2021/08/04 13:43:27;;;;;;;0.22;0.22;;;;;;;;;;5096424;28;20043;-76
2021/08/04 13:45:53;;;;;;;0.10;0.10;;;;;;;;;;5095361;28;20399;-76
2021/08/04 13:48:19;;;;;;;0.20;0.20;;;;;;;;;;5076736;28;20041;-76
2021/08/04 13:50:46;;;;;;;0.30;0.30;;;;;;;;;;5074608;28;20571;-76
2021/08/04 13:53:12;;;;;;;0.30;0.30;;;;;;;;;;5075791;28;20044;-77
2021/08/04 13:55:38;;;;;;;0.20;0.20;;;;;;;;;;5075866;28;20101;-75
2021/08/04 13:58:05;;;;;;;0.20;0.20;;;;;;;;;;5076354;28;20051;-75
2021/08/04 14:00:36;;;;;;;0.20;0.20;;;;;;;;;;5076183;28;20048;-76
2021/08/04 14:03:03;;;;;;;0.30;0.30;;;;;;;;;;5076305;28;20049;-76
2021/08/04 14:05:35;;;;;;;0.10;0.10;;;;;;;;;;5075936;28;20040;-76
2021/08/04 14:08:01;;;;;;;0.10;0.10;;;;;;;;;;5075603;28;20040;-76
2021/08/04 14:10:27;;;;;;;0.10;0.10;;;;;;;;;;5076181;28;20040;-76
2021/08/04 14:12:54;;;;;;;0.20;0.20;;;;;;;;;;5075720;28;20534;-76
2021/08/04 14:15:21;;;;;;;0.10;0.10;;;;;;;;;;5075856;28;20170;-76
2021/08/04 14:17:47;;;;;;;0.10;0.10;;;;;;;;;;5075972;28;20491;-77
2021/08/04 14:20:14;;;;;;;0.30;0.30;;;;;;;;;;5076017;28;20119;-77
2021/08/04 14:22:40;;;;;;;0.10;0.10;;;;;;;;;;5075869;28;20129;-76
2021/08/04 14:25:07;;;;;;;0.20;0.20;;;;;;;;;;5075866;28;20633;-77
2021/08/04 14:27:34;;;;;;;0.20;0.20;;;;;;;;;;5076351;28;20036;-76
2021/08/04 14:30:00;;;;;;;0.10;0.10;;;;;;;;;;5075535;28;20040;-76
2021/08/04 14:32:26;;;;;;;0.20;0.20;;;;;;;;;;5075434;28;20369;-76
2021/08/04 14:34:53;;;;;;;0.20;0.20;;;;;;;;;;5075177;28;20392;-76
2021/08/04 14:37:19;;;;;;;0.52;0.52;;;;;;;;;;5070549;28;20040;-77
2021/08/04 14:39:46;;;;;;;0.30;0.30;;;;;;;;;;5074839;28;20044;-76
2021/08/04 14:42:13;;;;;;;0.40;0.40;;;;;;;;;;5081482;28;20040;-78
2021/08/04 14:44:39;;;;;;;0.30;0.30;;;;;;;;;;5082575;28;20040;-77
2021/08/04 14:47:05;;;;;;;2.20;0.40;;;;;;;;;;5074466;28;20135;-76
2021/08/04 14:49:31;;;;;;;0.20;0.20;;;;;;;;;;5074067;28;20071;-77